< < Back
Terminal Aerodrome Forecast


Current Version              Previous Versions:   1  2  3  4  5  6  7  8  9  

Terminal Aerodrome Forecast

089
FTUS42 KILM 170500
TAFFLO
TAF
KFLO 170529Z 1706/1806 VRB06G15KT 6SM SHRA BKN020 OVC035
     FM170800 03004KT 4SM BR SCT015 BKN035
     FM171400 06006KT P6SM SCT025 BKN050=



Latest METAR

717
SAUS70 KWBC 170900
MTRFLO
METAR KFLO 170853Z AUTO 00000KT 9SM RA FEW080 BKN100 OVC120 20/18 A2992
RMK AO2 RAB31 SLP128 P0004 60006 T02000183 56024


USA.gov is the U.S. government's official web portal to all federal, state and local government web resources and services.